Log in Register

Login to your account

Username *
Password *
Remember Me

Create an account

Fields marked with an asterisk (*) are required.
Name *
Username *
Password *
Verify password *
Email *
Verify email *

Please enter the email address for your account. A verification code will be sent to you. Once you have received the verification code, you will be able to choose a new password for your account.

Nous contacter

 Téléphone : +33 (0)4 79 54 41 81

Coordonnées détaillées et accès : cliquez ici

 
LFLB °C
    Ferienhaus Ostsee
[source: ADDS]
METAR
LFLB 041900Z AUTO 23002KT CAVOK 11/04 Q1019 NOSIG =
TAF LFLB 041100Z 0412/0512 36008KT CAVOK BECMG 0418/0420 18004KT BECMG 0508/0510 36006KT
TAF
TAF LFLB 041100Z 0412/0512 36008KT CAVOK BECMG 0418/0420 18004KT BECMG 0508/0510 36006KT =
SR / SS: 05:09 / 18:08 UTC (Lever/Coucher du soleil le 2020-04-04)
JSN Boot template designed by JoomlaShine.com